sensor_id;sensor_type;location;lat;lon;timestamp;temperature;humidity
18777;DHT22;9517;51.174;4.160;2023-05-16T00:01:35;9.50;99.90
18777;DHT22;9517;51.174;4.160;2023-05-16T00:04:02;9.50;99.90
18777;DHT22;9517;51.174;4.160;2023-05-16T00:06:30;9.40;99.90
18777;DHT22;9517;51.174;4.160;2023-05-16T00:08:59;9.40;99.90
18777;DHT22;9517;51.174;4.160;2023-05-16T00:11:27;9.30;99.90
18777;DHT22;9517;51.174;4.160;2023-05-16T00:13:55;9.20;99.90
18777;DHT22;9517;51.174;4.160;2023-05-16T00:16:22;9.30;99.90
18777;DHT22;9517;51.174;4.160;2023-05-16T00:18:50;9.30;99.90
18777;DHT22;9517;51.174;4.160;2023-05-16T00:21:18;9.30;99.90
18777;DHT22;9517;51.174;4.160;2023-05-16T00:23:46;9.20;99.90
18777;DHT22;9517;51.174;4.160;2023-05-16T00:26:13;9.20;99.90
18777;DHT22;9517;51.174;4.160;2023-05-16T00:28:42;9.10;99.90
18777;DHT22;9517;51.174;4.160;2023-05-16T00:31:09;9.10;99.90
18777;DHT22;9517;51.174;4.160;2023-05-16T00:33:37;9.00;99.90
18777;DHT22;9517;51.174;4.160;2023-05-16T00:36:04;9.00;99.90
18777;DHT22;9517;51.174;4.160;2023-05-16T00:38:31;8.90;99.90
18777;DHT22;9517;51.174;4.160;2023-05-16T00:40:59;9.00;99.90
18777;DHT22;9517;51.174;4.160;2023-05-16T00:43:26;8.90;99.90
18777;DHT22;9517;51.174;4.160;2023-05-16T00:45:55;8.70;99.90
18777;DHT22;9517;51.174;4.160;2023-05-16T00:48:23;8.70;99.90
18777;DHT22;9517;51.174;4.160;2023-05-16T00:50:50;8.70;99.90
18777;DHT22;9517;51.174;4.160;2023-05-16T00:53:18;8.60;99.90
18777;DHT22;9517;51.174;4.160;2023-05-16T00:55:46;8.50;99.90
18777;DHT22;9517;51.174;4.160;2023-05-16T00:58:14;8.40;99.90
18777;DHT22;9517;51.174;4.160;2023-05-16T01:00:42;8.40;99.90
18777;DHT22;9517;51.174;4.160;2023-05-16T01:03:11;8.30;99.90
18777;DHT22;9517;51.174;4.160;2023-05-16T01:05:39;8.30;99.90
18777;DHT22;9517;51.174;4.160;2023-05-16T01:08:06;8.30;99.90
18777;DHT22;9517;51.174;4.160;2023-05-16T01:10:40;8.20;99.90
18777;DHT22;9517;51.174;4.160;2023-05-16T01:13:14;8.20;99.90
18777;DHT22;9517;51.174;4.160;2023-05-16T01:15:49;8.20;99.90
18777;DHT22;9517;51.174;4.160;2023-05-16T01:18:28;8.20;99.90
18777;DHT22;9517;51.174;4.160;2023-05-16T01:20:59;8.20;99.90
18777;DHT22;9517;51.174;4.160;2023-05-16T01:23:46;8.10;99.90
18777;DHT22;9517;51.174;4.160;2023-05-16T01:26:18;8.10;99.90
18777;DHT22;9517;51.174;4.160;2023-05-16T01:28:47;8.10;99.90
18777;DHT22;9517;51.174;4.160;2023-05-16T01:31:15;8.10;99.90
18777;DHT22;9517;51.174;4.160;2023-05-16T01:33:45;8.00;99.90
18777;DHT22;9517;51.174;4.160;2023-05-16T01:36:18;8.00;99.90
18777;DHT22;9517;51.174;4.160;2023-05-16T01:39:00;8.10;99.90
18777;DHT22;9517;51.174;4.160;2023-05-16T01:41:38;8.20;99.90
18777;DHT22;9517;51.174;4.160;2023-05-16T01:44:13;8.30;99.90
18777;DHT22;9517;51.174;4.160;2023-05-16T01:46:45;8.30;99.90
18777;DHT22;9517;51.174;4.160;2023-05-16T01:49:16;8.30;99.90
18777;DHT22;9517;51.174;4.160;2023-05-16T01:51:50;8.20;99.90
18777;DHT22;9517;51.174;4.160;2023-05-16T01:54:19;8.10;99.90
18777;DHT22;9517;51.174;4.160;2023-05-16T01:56:51;8.00;99.90
18777;DHT22;9517;51.174;4.160;2023-05-16T01:59:20;7.90;99.90
18777;DHT22;9517;51.174;4.160;2023-05-16T02:01:47;7.90;99.90
18777;DHT22;9517;51.174;4.160;2023-05-16T02:04:15;7.90;99.90
18777;DHT22;9517;51.174;4.160;2023-05-16T02:06:42;7.90;99.90
18777;DHT22;9517;51.174;4.160;2023-05-16T02:09:09;7.80;99.90
18777;DHT22;9517;51.174;4.160;2023-05-16T02:11:36;7.80;99.90
18777;DHT22;9517;51.174;4.160;2023-05-16T02:14:05;7.70;99.90
18777;DHT22;9517;51.174;4.160;2023-05-16T02:16:33;7.70;99.90
18777;DHT22;9517;51.174;4.160;2023-05-16T02:19:00;7.70;99.90
18777;DHT22;9517;51.174;4.160;2023-05-16T02:21:27;7.90;99.90
18777;DHT22;9517;51.174;4.160;2023-05-16T02:23:55;7.90;99.90
18777;DHT22;9517;51.174;4.160;2023-05-16T02:26:23;7.80;99.90
18777;DHT22;9517;51.174;4.160;2023-05-16T02:28:50;7.80;99.90
18777;DHT22;9517;51.174;4.160;2023-05-16T02:31:26;7.70;99.90
18777;DHT22;9517;51.174;4.160;2023-05-16T02:33:53;7.60;99.90
18777;DHT22;9517;51.174;4.160;2023-05-16T02:36:21;7.60;99.90
18777;DHT22;9517;51.174;4.160;2023-05-16T02:38:48;7.60;99.90
18777;DHT22;9517;51.174;4.160;2023-05-16T02:41:15;7.50;99.90
18777;DHT22;9517;51.174;4.160;2023-05-16T02:43:42;7.50;99.90
18777;DHT22;9517;51.174;4.160;2023-05-16T02:46:23;7.40;99.90
18777;DHT22;9517;51.174;4.160;2023-05-16T02:48:52;7.40;99.90
18777;DHT22;9517;51.174;4.160;2023-05-16T02:51:21;7.40;99.90
18777;DHT22;9517;51.174;4.160;2023-05-16T02:53:49;7.30;99.90
18777;DHT22;9517;51.174;4.160;2023-05-16T02:56:17;7.30;99.90
18777;DHT22;9517;51.174;4.160;2023-05-16T02:58:46;7.30;99.90
18777;DHT22;9517;51.174;4.160;2023-05-16T03:01:14;7.20;99.90
18777;DHT22;9517;51.174;4.160;2023-05-16T03:03:41;7.30;99.90
18777;DHT22;9517;51.174;4.160;2023-05-16T03:06:12;7.20;99.90
18777;DHT22;9517;51.174;4.160;2023-05-16T03:08:39;7.20;99.90
18777;DHT22;9517;51.174;4.160;2023-05-16T03:11:06;7.20;99.90
18777;DHT22;9517;51.174;4.160;2023-05-16T03:13:34;7.20;99.90
18777;DHT22;9517;51.174;4.160;2023-05-16T03:16:01;7.20;99.90
18777;DHT22;9517;51.174;4.160;2023-05-16T03:18:28;7.10;99.90
18777;DHT22;9517;51.174;4.160;2023-05-16T03:20:56;7.10;99.90
18777;DHT22;9517;51.174;4.160;2023-05-16T03:23:25;7.10;99.90
18777;DHT22;9517;51.174;4.160;2023-05-16T03:25:53;7.00;99.90
18777;DHT22;9517;51.174;4.160;2023-05-16T03:28:21;7.00;99.90
18777;DHT22;9517;51.174;4.160;2023-05-16T03:30:48;7.10;99.90
18777;DHT22;9517;51.174;4.160;2023-05-16T03:33:15;7.10;99.90
18777;DHT22;9517;51.174;4.160;2023-05-16T03:35:44;7.10;99.90
18777;DHT22;9517;51.174;4.160;2023-05-16T03:38:12;7.10;99.90
18777;DHT22;9517;51.174;4.160;2023-05-16T03:40:41;7.00;99.90
18777;DHT22;9517;51.174;4.160;2023-05-16T03:43:08;7.00;99.90
18777;DHT22;9517;51.174;4.160;2023-05-16T03:45:35;7.10;99.90
18777;DHT22;9517;51.174;4.160;2023-05-16T03:48:03;7.20;99.90
18777;DHT22;9517;51.174;4.160;2023-05-16T03:50:30;7.20;99.90
18777;DHT22;9517;51.174;4.160;2023-05-16T03:52:58;7.30;99.90
18777;DHT22;9517;51.174;4.160;2023-05-16T03:55:27;7.20;99.90
18777;DHT22;9517;51.174;4.160;2023-05-16T03:57:57;7.20;99.90
18777;DHT22;9517;51.174;4.160;2023-05-16T04:00:24;7.20;99.90
18777;DHT22;9517;51.174;4.160;2023-05-16T04:02:51;7.10;99.90
18777;DHT22;9517;51.174;4.160;2023-05-16T04:05:19;7.20;99.90
18777;DHT22;9517;51.174;4.160;2023-05-16T04:07:46;7.20;99.90
18777;DHT22;9517;51.174;4.160;2023-05-16T04:10:13;7.10;99.90
18777;DHT22;9517;51.174;4.160;2023-05-16T04:12:40;7.10;99.90
18777;DHT22;9517;51.174;4.160;2023-05-16T04:15:10;7.10;99.90
18777;DHT22;9517;51.174;4.160;2023-05-16T04:17:37;7.10;99.90
18777;DHT22;9517;51.174;4.160;2023-05-16T04:20:05;7.10;99.90
18777;DHT22;9517;51.174;4.160;2023-05-16T04:22:33;7.20;99.90
18777;DHT22;9517;51.174;4.160;2023-05-16T04:25:00;7.20;99.90
18777;DHT22;9517;51.174;4.160;2023-05-16T04:27:27;7.20;99.90
18777;DHT22;9517;51.174;4.160;2023-05-16T04:29:55;7.20;99.90
18777;DHT22;9517;51.174;4.160;2023-05-16T04:32:25;7.20;99.90
18777;DHT22;9517;51.174;4.160;2023-05-16T04:34:53;7.20;99.90
18777;DHT22;9517;51.174;4.160;2023-05-16T04:37:20;7.30;99.90
18777;DHT22;9517;51.174;4.160;2023-05-16T04:39:47;7.30;99.90
18777;DHT22;9517;51.174;4.160;2023-05-16T04:42:16;7.30;99.90
18777;DHT22;9517;51.174;4.160;2023-05-16T04:44:43;7.40;99.90
18777;DHT22;9517;51.174;4.160;2023-05-16T04:47:12;7.50;99.90
18777;DHT22;9517;51.174;4.160;2023-05-16T04:49:41;7.50;99.90
18777;DHT22;9517;51.174;4.160;2023-05-16T04:52:08;7.70;99.90
18777;DHT22;9517;51.174;4.160;2023-05-16T04:54:37;7.80;99.90
18777;DHT22;9517;51.174;4.160;2023-05-16T04:57:05;7.90;99.90
18777;DHT22;9517;51.174;4.160;2023-05-16T04:59:32;8.10;99.90
18777;DHT22;9517;51.174;4.160;2023-05-16T05:01:59;8.20;99.90
18777;DHT22;9517;51.174;4.160;2023-05-16T05:04:26;8.40;99.90
18777;DHT22;9517;51.174;4.160;2023-05-16T05:06:55;8.50;99.90
18777;DHT22;9517;51.174;4.160;2023-05-16T05:09:24;8.70;99.90
18777;DHT22;9517;51.174;4.160;2023-05-16T05:11:51;8.60;99.90
18777;DHT22;9517;51.174;4.160;2023-05-16T05:14:18;8.50;99.90
18777;DHT22;9517;51.174;4.160;2023-05-16T05:16:45;8.60;99.90
18777;DHT22;9517;51.174;4.160;2023-05-16T05:19:12;8.60;99.90
18777;DHT22;9517;51.174;4.160;2023-05-16T05:21:39;8.60;99.90
18777;DHT22;9517;51.174;4.160;2023-05-16T05:24:08;8.70;99.90
18777;DHT22;9517;51.174;4.160;2023-05-16T05:26:36;8.90;99.90
18777;DHT22;9517;51.174;4.160;2023-05-16T05:29:03;9.00;99.90
18777;DHT22;9517;51.174;4.160;2023-05-16T05:31:30;9.00;99.90
18777;DHT22;9517;51.174;4.160;2023-05-16T05:33:58;9.10;99.90
18777;DHT22;9517;51.174;4.160;2023-05-16T05:36:25;9.00;99.90
18777;DHT22;9517;51.174;4.160;2023-05-16T05:38:52;9.10;99.90
18777;DHT22;9517;51.174;4.160;2023-05-16T05:41:21;9.20;99.90
18777;DHT22;9517;51.174;4.160;2023-05-16T05:43:48;9.30;99.90
18777;DHT22;9517;51.174;4.160;2023-05-16T05:46:15;9.30;99.90
18777;DHT22;9517;51.174;4.160;2023-05-16T05:48:43;9.30;99.90
18777;DHT22;9517;51.174;4.160;2023-05-16T05:51:10;9.50;99.90
18777;DHT22;9517;51.174;4.160;2023-05-16T05:53:39;9.50;99.90
18777;DHT22;9517;51.174;4.160;2023-05-16T05:56:06;9.60;99.90
18777;DHT22;9517;51.174;4.160;2023-05-16T05:58:35;9.70;99.90
18777;DHT22;9517;51.174;4.160;2023-05-16T06:01:02;9.70;99.90
18777;DHT22;9517;51.174;4.160;2023-05-16T06:03:29;9.90;99.90
18777;DHT22;9517;51.174;4.160;2023-05-16T06:05:56;10.00;99.90
18777;DHT22;9517;51.174;4.160;2023-05-16T06:08:23;10.10;99.90
18777;DHT22;9517;51.174;4.160;2023-05-16T06:10:50;10.30;99.90
18777;DHT22;9517;51.174;4.160;2023-05-16T06:13:17;10.40;99.90
18777;DHT22;9517;51.174;4.160;2023-05-16T06:15:50;10.40;99.90
18777;DHT22;9517;51.174;4.160;2023-05-16T06:18:17;10.80;99.90
18777;DHT22;9517;51.174;4.160;2023-05-16T06:20:44;11.20;99.90
18777;DHT22;9517;51.174;4.160;2023-05-16T06:23:11;11.50;99.90
18777;DHT22;9517;51.174;4.160;2023-05-16T06:25:38;11.80;99.90
18777;DHT22;9517;51.174;4.160;2023-05-16T06:28:05;12.30;99.90
18777;DHT22;9517;51.174;4.160;2023-05-16T06:30:32;12.60;99.90
18777;DHT22;9517;51.174;4.160;2023-05-16T06:33:01;12.70;99.90
18777;DHT22;9517;51.174;4.160;2023-05-16T06:35:28;12.70;99.90
18777;DHT22;9517;51.174;4.160;2023-05-16T06:37:55;12.70;99.90
18777;DHT22;9517;51.174;4.160;2023-05-16T06:40:22;12.60;99.90
18777;DHT22;9517;51.174;4.160;2023-05-16T06:42:49;12.30;99.90
18777;DHT22;9517;51.174;4.160;2023-05-16T06:45:16;11.90;99.90
18777;DHT22;9517;51.174;4.160;2023-05-16T06:47:43;11.80;99.90
18777;DHT22;9517;51.174;4.160;2023-05-16T06:50:12;11.60;99.90
18777;DHT22;9517;51.174;4.160;2023-05-16T06:52:39;11.30;99.90
18777;DHT22;9517;51.174;4.160;2023-05-16T06:55:07;11.40;99.90
18777;DHT22;9517;51.174;4.160;2023-05-16T06:57:34;11.30;99.90
18777;DHT22;9517;51.174;4.160;2023-05-16T07:00:01;11.20;99.90
18777;DHT22;9517;51.174;4.160;2023-05-16T07:02:28;11.00;99.90
18777;DHT22;9517;51.174;4.160;2023-05-16T07:04:56;10.80;99.90
18777;DHT22;9517;51.174;4.160;2023-05-16T07:07:25;10.80;99.90
18777;DHT22;9517;51.174;4.160;2023-05-16T07:09:52;10.60;99.90
18777;DHT22;9517;51.174;4.160;2023-05-16T07:12:19;10.60;99.90
18777;DHT22;9517;51.174;4.160;2023-05-16T07:14:46;10.70;99.90
18777;DHT22;9517;51.174;4.160;2023-05-16T07:17:13;10.90;99.90
18777;DHT22;9517;51.174;4.160;2023-05-16T07:19:40;11.20;99.90
18777;DHT22;9517;51.174;4.160;2023-05-16T07:22:08;11.30;99.90
18777;DHT22;9517;51.174;4.160;2023-05-16T07:24:37;11.70;99.90
18777;DHT22;9517;51.174;4.160;2023-05-16T07:27:04;12.00;99.90
18777;DHT22;9517;51.174;4.160;2023-05-16T07:29:31;12.20;99.90
18777;DHT22;9517;51.174;4.160;2023-05-16T07:31:58;12.30;99.90
18777;DHT22;9517;51.174;4.160;2023-05-16T07:34:25;12.40;99.90
18777;DHT22;9517;51.174;4.160;2023-05-16T07:36:52;12.60;99.90
18777;DHT22;9517;51.174;4.160;2023-05-16T07:39:20;12.80;99.90
18777;DHT22;9517;51.174;4.160;2023-05-16T07:41:48;12.90;99.90
18777;DHT22;9517;51.174;4.160;2023-05-16T07:44:15;13.00;99.90
18777;DHT22;9517;51.174;4.160;2023-05-16T07:46:42;13.20;99.90
18777;DHT22;9517;51.174;4.160;2023-05-16T07:49:10;13.50;99.90
18777;DHT22;9517;51.174;4.160;2023-05-16T07:51:37;13.30;99.90
18777;DHT22;9517;51.174;4.160;2023-05-16T07:54:04;12.90;99.90
18777;DHT22;9517;51.174;4.160;2023-05-16T07:56:31;12.70;99.90
18777;DHT22;9517;51.174;4.160;2023-05-16T07:59:00;12.70;99.90
18777;DHT22;9517;51.174;4.160;2023-05-16T08:01:27;12.80;99.90
18777;DHT22;9517;51.174;4.160;2023-05-16T08:03:54;13.00;99.90
18777;DHT22;9517;51.174;4.160;2023-05-16T08:06:21;13.10;99.90
18777;DHT22;9517;51.174;4.160;2023-05-16T08:08:48;13.20;99.90
18777;DHT22;9517;51.174;4.160;2023-05-16T08:11:16;13.10;99.90
18777;DHT22;9517;51.174;4.160;2023-05-16T08:13:44;13.10;99.90
18777;DHT22;9517;51.174;4.160;2023-05-16T08:16:12;13.40;99.90
18777;DHT22;9517;51.174;4.160;2023-05-16T08:18:39;13.80;99.90
18777;DHT22;9517;51.174;4.160;2023-05-16T08:21:07;13.80;99.90
18777;DHT22;9517;51.174;4.160;2023-05-16T08:23:34;13.90;99.90
18777;DHT22;9517;51.174;4.160;2023-05-16T08:26:02;13.80;99.90
18777;DHT22;9517;51.174;4.160;2023-05-16T08:28:29;13.70;99.90
18777;DHT22;9517;51.174;4.160;2023-05-16T08:30:56;13.80;99.90
18777;DHT22;9517;51.174;4.160;2023-05-16T08:33:25;13.90;99.90
18777;DHT22;9517;51.174;4.160;2023-05-16T08:35:52;14.00;99.90
18777;DHT22;9517;51.174;4.160;2023-05-16T08:38:19;14.00;99.90
18777;DHT22;9517;51.174;4.160;2023-05-16T08:40:46;14.00;99.90
18777;DHT22;9517;51.174;4.160;2023-05-16T08:43:13;13.90;99.90
18777;DHT22;9517;51.174;4.160;2023-05-16T08:45:40;14.20;99.90
18777;DHT22;9517;51.174;4.160;2023-05-16T08:48:09;14.30;99.90
18777;DHT22;9517;51.174;4.160;2023-05-16T08:50:38;14.20;99.90
18777;DHT22;9517;51.174;4.160;2023-05-16T08:53:07;14.60;99.90
18777;DHT22;9517;51.174;4.160;2023-05-16T08:55:35;14.80;99.90
18777;DHT22;9517;51.174;4.160;2023-05-16T08:58:03;15.20;99.90
18777;DHT22;9517;51.174;4.160;2023-05-16T09:00:31;15.30;99.90
18777;DHT22;9517;51.174;4.160;2023-05-16T09:02:58;15.30;99.90
18777;DHT22;9517;51.174;4.160;2023-05-16T09:05:28;15.40;99.90
18777;DHT22;9517;51.174;4.160;2023-05-16T09:07:57;15.30;99.90
18777;DHT22;9517;51.174;4.160;2023-05-16T09:10:24;15.90;99.90
18777;DHT22;9517;51.174;4.160;2023-05-16T09:12:52;16.50;99.90
18777;DHT22;9517;51.174;4.160;2023-05-16T09:15:19;17.10;99.90
18777;DHT22;9517;51.174;4.160;2023-05-16T09:17:47;17.50;99.90
18777;DHT22;9517;51.174;4.160;2023-05-16T09:20:15;17.60;99.90
18777;DHT22;9517;51.174;4.160;2023-05-16T09:22:50;17.20;99.90
18777;DHT22;9517;51.174;4.160;2023-05-16T09:25:20;17.20;99.90
18777;DHT22;9517;51.174;4.160;2023-05-16T09:27:47;17.40;99.90
18777;DHT22;9517;51.174;4.160;2023-05-16T09:30:15;17.50;99.90
18777;DHT22;9517;51.174;4.160;2023-05-16T09:32:43;17.30;99.90
18777;DHT22;9517;51.174;4.160;2023-05-16T09:35:14;16.80;99.90
18777;DHT22;9517;51.174;4.160;2023-05-16T09:37:44;16.60;99.90
18777;DHT22;9517;51.174;4.160;2023-05-16T09:40:12;15.70;99.90
18777;DHT22;9517;51.174;4.160;2023-05-16T09:42:42;15.40;99.90
18777;DHT22;9517;51.174;4.160;2023-05-16T09:45:11;15.40;99.90
18777;DHT22;9517;51.174;4.160;2023-05-16T09:47:39;15.40;99.90
18777;DHT22;9517;51.174;4.160;2023-05-16T09:50:13;15.80;99.90
18777;DHT22;9517;51.174;4.160;2023-05-16T09:52:41;16.40;99.90
18777;DHT22;9517;51.174;4.160;2023-05-16T09:55:09;16.70;99.90
18777;DHT22;9517;51.174;4.160;2023-05-16T09:57:36;16.90;99.90
18777;DHT22;9517;51.174;4.160;2023-05-16T10:00:09;17.40;99.90
18777;DHT22;9517;51.174;4.160;2023-05-16T10:02:37;17.40;99.90
18777;DHT22;9517;51.174;4.160;2023-05-16T10:05:05;17.70;99.90
18777;DHT22;9517;51.174;4.160;2023-05-16T10:07:32;17.10;99.90
18777;DHT22;9517;51.174;4.160;2023-05-16T10:10:04;16.50;99.90
18777;DHT22;9517;51.174;4.160;2023-05-16T10:12:32;16.10;99.90
18777;DHT22;9517;51.174;4.160;2023-05-16T10:15:00;16.50;99.90
18777;DHT22;9517;51.174;4.160;2023-05-16T10:17:33;17.00;99.90
18777;DHT22;9517;51.174;4.160;2023-05-16T10:20:01;16.40;99.90
18777;DHT22;9517;51.174;4.160;2023-05-16T10:22:32;16.00;99.90
18777;DHT22;9517;51.174;4.160;2023-05-16T10:25:06;16.30;99.90
18777;DHT22;9517;51.174;4.160;2023-05-16T10:27:35;16.60;99.90
18777;DHT22;9517;51.174;4.160;2023-05-16T10:30:03;16.90;99.90
18777;DHT22;9517;51.174;4.160;2023-05-16T10:32:32;17.70;99.90
18777;DHT22;9517;51.174;4.160;2023-05-16T10:35:00;17.50;99.90
18777;DHT22;9517;51.174;4.160;2023-05-16T10:37:29;17.40;99.90
18777;DHT22;9517;51.174;4.160;2023-05-16T10:39:57;17.80;99.90
18777;DHT22;9517;51.174;4.160;2023-05-16T10:42:25;17.90;99.90
18777;DHT22;9517;51.174;4.160;2023-05-16T10:44:53;17.90;99.90
18777;DHT22;9517;51.174;4.160;2023-05-16T10:47:21;18.10;99.90
18777;DHT22;9517;51.174;4.160;2023-05-16T10:49:49;17.10;99.90
18777;DHT22;9517;51.174;4.160;2023-05-16T10:52:16;16.70;99.90
18777;DHT22;9517;51.174;4.160;2023-05-16T10:54:50;17.10;99.90
18777;DHT22;9517;51.174;4.160;2023-05-16T10:57:19;18.10;99.90
18777;DHT22;9517;51.174;4.160;2023-05-16T10:59:50;18.80;99.90
18777;DHT22;9517;51.174;4.160;2023-05-16T11:02:23;19.30;99.90
18777;DHT22;9517;51.174;4.160;2023-05-16T11:04:53;19.50;99.90
18777;DHT22;9517;51.174;4.160;2023-05-16T11:07:24;18.40;99.90
18777;DHT22;9517;51.174;4.160;2023-05-16T11:10:08;17.90;99.90
18777;DHT22;9517;51.174;4.160;2023-05-16T11:12:43;18.70;99.90
18777;DHT22;9517;51.174;4.160;2023-05-16T11:15:22;19.00;99.90
18777;DHT22;9517;51.174;4.160;2023-05-16T11:17:50;19.50;99.90
18777;DHT22;9517;51.174;4.160;2023-05-16T11:20:26;20.00;99.90
18777;DHT22;9517;51.174;4.160;2023-05-16T11:23:18;19.20;99.90
18777;DHT22;9517;51.174;4.160;2023-05-16T11:25:46;20.20;99.90
18777;DHT22;9517;51.174;4.160;2023-05-16T11:28:17;19.40;99.90
18777;DHT22;9517;51.174;4.160;2023-05-16T11:30:46;19.70;99.90
18777;DHT22;9517;51.174;4.160;2023-05-16T11:33:13;21.10;99.90
18777;DHT22;9517;51.174;4.160;2023-05-16T11:35:42;22.40;99.90
18777;DHT22;9517;51.174;4.160;2023-05-16T11:38:12;21.90;99.90
18777;DHT22;9517;51.174;4.160;2023-05-16T11:40:44;21.90;99.90
18777;DHT22;9517;51.174;4.160;2023-05-16T11:43:16;22.40;99.90
18777;DHT22;9517;51.174;4.160;2023-05-16T11:45:44;22.20;99.90
18777;DHT22;9517;51.174;4.160;2023-05-16T11:48:11;20.70;99.90
18777;DHT22;9517;51.174;4.160;2023-05-16T11:50:38;20.50;99.90
18777;DHT22;9517;51.174;4.160;2023-05-16T11:53:07;21.20;99.90
18777;DHT22;9517;51.174;4.160;2023-05-16T11:55:34;21.70;99.90
18777;DHT22;9517;51.174;4.160;2023-05-16T11:58:03;22.00;99.90
18777;DHT22;9517;51.174;4.160;2023-05-16T12:00:31;21.20;99.90
18777;DHT22;9517;51.174;4.160;2023-05-16T12:03:01;21.40;99.90
18777;DHT22;9517;51.174;4.160;2023-05-16T12:05:29;21.20;99.90
18777;DHT22;9517;51.174;4.160;2023-05-16T12:07:57;21.40;99.90
18777;DHT22;9517;51.174;4.160;2023-05-16T12:10:25;20.30;99.90
18777;DHT22;9517;51.174;4.160;2023-05-16T12:12:54;20.20;99.90
18777;DHT22;9517;51.174;4.160;2023-05-16T12:15:21;20.90;99.90
18777;DHT22;9517;51.174;4.160;2023-05-16T12:17:48;20.40;99.90
18777;DHT22;9517;51.174;4.160;2023-05-16T12:20:16;20.70;99.90
18777;DHT22;9517;51.174;4.160;2023-05-16T12:22:44;21.60;99.90
18777;DHT22;9517;51.174;4.160;2023-05-16T12:25:20;22.70;99.90
18777;DHT22;9517;51.174;4.160;2023-05-16T12:27:49;23.10;98.70
18777;DHT22;9517;51.174;4.160;2023-05-16T12:30:16;22.40;99.50
18777;DHT22;9517;51.174;4.160;2023-05-16T12:32:44;23.00;99.90
18777;DHT22;9517;51.174;4.160;2023-05-16T12:35:11;23.80;99.50
18777;DHT22;9517;51.174;4.160;2023-05-16T12:37:38;24.50;99.60
18777;DHT22;9517;51.174;4.160;2023-05-16T12:40:08;24.40;96.30
18777;DHT22;9517;51.174;4.160;2023-05-16T12:42:37;23.50;96.20
18777;DHT22;9517;51.174;4.160;2023-05-16T12:45:13;23.80;95.40
18777;DHT22;9517;51.174;4.160;2023-05-16T12:47:41;24.40;96.80
18777;DHT22;9517;51.174;4.160;2023-05-16T12:50:09;24.00;94.20
18777;DHT22;9517;51.174;4.160;2023-05-16T12:52:46;23.70;94.20
18777;DHT22;9517;51.174;4.160;2023-05-16T12:55:14;24.70;95.10
18777;DHT22;9517;51.174;4.160;2023-05-16T12:57:41;24.40;94.40
18777;DHT22;9517;51.174;4.160;2023-05-16T13:00:12;24.60;95.70
18777;DHT22;9517;51.174;4.160;2023-05-16T13:02:40;25.10;93.30
18777;DHT22;9517;51.174;4.160;2023-05-16T13:05:07;25.90;93.60
18777;DHT22;9517;51.174;4.160;2023-05-16T13:07:35;24.40;92.80
18777;DHT22;9517;51.174;4.160;2023-05-16T13:10:02;23.10;94.20
18777;DHT22;9517;51.174;4.160;2023-05-16T13:12:30;22.90;96.60
18777;DHT22;9517;51.174;4.160;2023-05-16T13:14:57;23.40;96.10
18777;DHT22;9517;51.174;4.160;2023-05-16T13:17:26;23.30;95.60
18777;DHT22;9517;51.174;4.160;2023-05-16T13:19:54;23.10;95.20
18777;DHT22;9517;51.174;4.160;2023-05-16T13:22:21;22.60;96.20
18777;DHT22;9517;51.174;4.160;2023-05-16T13:24:48;22.70;95.40
18777;DHT22;9517;51.174;4.160;2023-05-16T13:27:15;22.80;95.80
18777;DHT22;9517;51.174;4.160;2023-05-16T13:29:43;23.10;96.90
18777;DHT22;9517;51.174;4.160;2023-05-16T13:32:10;23.70;94.40
18777;DHT22;9517;51.174;4.160;2023-05-16T13:34:39;23.80;95.30
18777;DHT22;9517;51.174;4.160;2023-05-16T13:37:06;23.60;94.40
18777;DHT22;9517;51.174;4.160;2023-05-16T13:39:33;23.60;95.50
18777;DHT22;9517;51.174;4.160;2023-05-16T13:42:00;24.00;94.80
18777;DHT22;9517;51.174;4.160;2023-05-16T13:44:28;22.80;95.50
18777;DHT22;9517;51.174;4.160;2023-05-16T13:46:56;22.50;96.60
18777;DHT22;9517;51.174;4.160;2023-05-16T13:49:23;22.60;95.90
18777;DHT22;9517;51.174;4.160;2023-05-16T13:51:52;22.50;96.30
18777;DHT22;9517;51.174;4.160;2023-05-16T13:54:19;21.70;97.10
18777;DHT22;9517;51.174;4.160;2023-05-16T13:56:47;20.70;98.80
18777;DHT22;9517;51.174;4.160;2023-05-16T13:59:14;20.00;99.90
18777;DHT22;9517;51.174;4.160;2023-05-16T14:01:41;19.60;99.30
18777;DHT22;9517;51.174;4.160;2023-05-16T14:04:08;19.30;99.90
18777;DHT22;9517;51.174;4.160;2023-05-16T14:06:35;19.10;99.90
18777;DHT22;9517;51.174;4.160;2023-05-16T14:09:04;19.30;99.90
18777;DHT22;9517;51.174;4.160;2023-05-16T14:11:31;19.60;99.90
18777;DHT22;9517;51.174;4.160;2023-05-16T14:13:58;19.50;99.90
18777;DHT22;9517;51.174;4.160;2023-05-16T14:16:25;18.90;99.90
18777;DHT22;9517;51.174;4.160;2023-05-16T14:18:52;19.30;99.90
18777;DHT22;9517;51.174;4.160;2023-05-16T14:21:19;19.80;99.90
18777;DHT22;9517;51.174;4.160;2023-05-16T14:23:46;20.10;99.90
18777;DHT22;9517;51.174;4.160;2023-05-16T14:26:15;20.20;99.90
18777;DHT22;9517;51.174;4.160;2023-05-16T14:28:43;19.40;99.90
18777;DHT22;9517;51.174;4.160;2023-05-16T14:31:10;19.50;99.90
18777;DHT22;9517;51.174;4.160;2023-05-16T14:33:37;19.50;99.90
18777;DHT22;9517;51.174;4.160;2023-05-16T14:36:06;19.80;99.90
18777;DHT22;9517;51.174;4.160;2023-05-16T14:38:33;20.00;99.90
18777;DHT22;9517;51.174;4.160;2023-05-16T14:41:00;19.70;99.90
18777;DHT22;9517;51.174;4.160;2023-05-16T14:43:29;19.20;99.90
18777;DHT22;9517;51.174;4.160;2023-05-16T14:45:56;19.70;99.90
18777;DHT22;9517;51.174;4.160;2023-05-16T14:48:23;20.50;99.90
18777;DHT22;9517;51.174;4.160;2023-05-16T14:50:50;21.70;99.90
18777;DHT22;9517;51.174;4.160;2023-05-16T14:53:17;22.20;99.90
18777;DHT22;9517;51.174;4.160;2023-05-16T14:55:46;23.10;99.70
18777;DHT22;9517;51.174;4.160;2023-05-16T14:58:13;22.40;97.30
18777;DHT22;9517;51.174;4.160;2023-05-16T15:00:42;22.50;98.60
18777;DHT22;9517;51.174;4.160;2023-05-16T15:03:09;22.70;97.40
18777;DHT22;9517;51.174;4.160;2023-05-16T15:05:36;22.40;96.50
18777;DHT22;9517;51.174;4.160;2023-05-16T15:08:04;22.10;96.40
18777;DHT22;9517;51.174;4.160;2023-05-16T15:10:31;22.20;96.80
18777;DHT22;9517;51.174;4.160;2023-05-16T15:12:58;22.50;96.40
18777;DHT22;9517;51.174;4.160;2023-05-16T15:15:25;21.90;98.80
18777;DHT22;9517;51.174;4.160;2023-05-16T15:17:53;21.90;99.10
18777;DHT22;9517;51.174;4.160;2023-05-16T15:20:21;21.70;99.10
18777;DHT22;9517;51.174;4.160;2023-05-16T15:22:50;21.20;98.40
18777;DHT22;9517;51.174;4.160;2023-05-16T15:25:17;20.50;99.30
18777;DHT22;9517;51.174;4.160;2023-05-16T15:27:45;19.70;99.90
18777;DHT22;9517;51.174;4.160;2023-05-16T15:30:12;19.80;99.90
18777;DHT22;9517;51.174;4.160;2023-05-16T15:32:40;20.10;99.90
18777;DHT22;9517;51.174;4.160;2023-05-16T15:35:08;20.70;99.90
18777;DHT22;9517;51.174;4.160;2023-05-16T15:37:36;21.70;99.90
18777;DHT22;9517;51.174;4.160;2023-05-16T15:40:04;22.40;99.10
18777;DHT22;9517;51.174;4.160;2023-05-16T15:42:31;22.50;98.00
18777;DHT22;9517;51.174;4.160;2023-05-16T15:44:58;21.70;97.80
18777;DHT22;9517;51.174;4.160;2023-05-16T15:47:25;21.20;98.70
18777;DHT22;9517;51.174;4.160;2023-05-16T15:49:52;21.40;98.30
18777;DHT22;9517;51.174;4.160;2023-05-16T15:52:21;21.40;99.90
18777;DHT22;9517;51.174;4.160;2023-05-16T15:54:48;21.50;96.90
18777;DHT22;9517;51.174;4.160;2023-05-16T15:57:15;21.40;97.80
18777;DHT22;9517;51.174;4.160;2023-05-16T15:59:42;21.20;97.70